sensor_id;sensor_type;location;lat;lon;timestamp;P1;durP1;ratioP1;P2;durP2;ratioP2
38455;SDS011;24237;50.106;20.014;2023-09-30T00:02:11;37.67;;;21.30;;
38455;SDS011;24237;50.106;20.014;2023-09-30T00:04:37;39.33;;;21.85;;
38455;SDS011;24237;50.106;20.014;2023-09-30T00:07:03;37.55;;;22.23;;
38455;SDS011;24237;50.106;20.014;2023-09-30T00:09:29;46.53;;;21.95;;
38455;SDS011;24237;50.106;20.014;2023-09-30T00:11:55;44.47;;;23.73;;
38455;SDS011;24237;50.106;20.014;2023-09-30T00:14:21;49.63;;;23.60;;
38455;SDS011;24237;50.106;20.014;2023-09-30T00:16:46;38.50;;;21.92;;
38455;SDS011;24237;50.106;20.014;2023-09-30T00:19:12;42.47;;;22.73;;
38455;SDS011;24237;50.106;20.014;2023-09-30T00:21:38;41.53;;;24.83;;
38455;SDS011;24237;50.106;20.014;2023-09-30T00:24:04;36.95;;;23.17;;
38455;SDS011;24237;50.106;20.014;2023-09-30T00:26:30;43.33;;;22.02;;
38455;SDS011;24237;50.106;20.014;2023-09-30T00:28:56;40.08;;;22.30;;
38455;SDS011;24237;50.106;20.014;2023-09-30T00:31:21;41.15;;;24.23;;
38455;SDS011;24237;50.106;20.014;2023-09-30T00:33:47;38.55;;;23.17;;
38455;SDS011;24237;50.106;20.014;2023-09-30T00:36:13;41.17;;;23.10;;
38455;SDS011;24237;50.106;20.014;2023-09-30T00:38:38;51.25;;;24.10;;
38455;SDS011;24237;50.106;20.014;2023-09-30T00:41:05;43.83;;;22.75;;
38455;SDS011;24237;50.106;20.014;2023-09-30T00:43:32;37.30;;;22.33;;
38455;SDS011;24237;50.106;20.014;2023-09-30T00:46:02;42.83;;;23.42;;
38455;SDS011;24237;50.106;20.014;2023-09-30T00:48:34;46.45;;;22.92;;
38455;SDS011;24237;50.106;20.014;2023-09-30T00:51:00;49.33;;;22.55;;
38455;SDS011;24237;50.106;20.014;2023-09-30T00:53:26;39.15;;;22.67;;
38455;SDS011;24237;50.106;20.014;2023-09-30T00:55:53;39.40;;;22.63;;
38455;SDS011;24237;50.106;20.014;2023-09-30T00:58:21;42.58;;;21.90;;
38455;SDS011;24237;50.106;20.014;2023-09-30T01:00:50;39.30;;;22.23;;
38455;SDS011;24237;50.106;20.014;2023-09-30T01:03:17;44.72;;;22.00;;
38455;SDS011;24237;50.106;20.014;2023-09-30T01:05:44;46.13;;;22.63;;
38455;SDS011;24237;50.106;20.014;2023-09-30T01:08:10;46.88;;;24.25;;
38455;SDS011;24237;50.106;20.014;2023-09-30T01:10:36;40.05;;;23.27;;
38455;SDS011;24237;50.106;20.014;2023-09-30T01:13:01;39.80;;;21.23;;
38455;SDS011;24237;50.106;20.014;2023-09-30T01:15:28;44.05;;;22.00;;
38455;SDS011;24237;50.106;20.014;2023-09-30T01:17:54;39.47;;;20.85;;
38455;SDS011;24237;50.106;20.014;2023-09-30T01:20:20;41.05;;;21.20;;
38455;SDS011;24237;50.106;20.014;2023-09-30T01:22:48;34.08;;;22.00;;
38455;SDS011;24237;50.106;20.014;2023-09-30T01:25:13;49.00;;;22.02;;
38455;SDS011;24237;50.106;20.014;2023-09-30T01:27:39;34.85;;;20.67;;
38455;SDS011;24237;50.106;20.014;2023-09-30T01:30:05;39.85;;;21.88;;
38455;SDS011;24237;50.106;20.014;2023-09-30T01:32:31;40.60;;;20.92;;
38455;SDS011;24237;50.106;20.014;2023-09-30T01:34:57;36.33;;;20.25;;
38455;SDS011;24237;50.106;20.014;2023-09-30T01:37:22;40.20;;;21.88;;
38455;SDS011;24237;50.106;20.014;2023-09-30T01:39:51;42.50;;;21.85;;
38455;SDS011;24237;50.106;20.014;2023-09-30T01:42:19;39.88;;;22.33;;
38455;SDS011;24237;50.106;20.014;2023-09-30T01:44:45;35.53;;;21.58;;
38455;SDS011;24237;50.106;20.014;2023-09-30T01:47:11;39.45;;;20.13;;
38455;SDS011;24237;50.106;20.014;2023-09-30T01:49:37;31.70;;;18.08;;
38455;SDS011;24237;50.106;20.014;2023-09-30T01:52:02;33.40;;;18.73;;
38455;SDS011;24237;50.106;20.014;2023-09-30T01:54:28;42.67;;;19.25;;
38455;SDS011;24237;50.106;20.014;2023-09-30T01:56:54;32.67;;;18.25;;
38455;SDS011;24237;50.106;20.014;2023-09-30T01:59:19;26.33;;;16.15;;
38455;SDS011;24237;50.106;20.014;2023-09-30T02:01:46;29.98;;;14.98;;
38455;SDS011;24237;50.106;20.014;2023-09-30T02:04:12;26.25;;;13.63;;
38455;SDS011;24237;50.106;20.014;2023-09-30T02:06:40;25.73;;;14.43;;
38455;SDS011;24237;50.106;20.014;2023-09-30T02:09:06;25.75;;;12.65;;
38455;SDS011;24237;50.106;20.014;2023-09-30T02:11:33;28.15;;;13.23;;
38455;SDS011;24237;50.106;20.014;2023-09-30T02:14:02;36.72;;;15.20;;
38455;SDS011;24237;50.106;20.014;2023-09-30T02:16:30;31.25;;;15.77;;
38455;SDS011;24237;50.106;20.014;2023-09-30T02:18:56;20.83;;;12.93;;
38455;SDS011;24237;50.106;20.014;2023-09-30T02:21:22;21.45;;;13.15;;
38455;SDS011;24237;50.106;20.014;2023-09-30T02:23:47;30.58;;;14.43;;
38455;SDS011;24237;50.106;20.014;2023-09-30T02:26:16;22.52;;;13.15;;
38455;SDS011;24237;50.106;20.014;2023-09-30T02:28:42;25.95;;;14.27;;
38455;SDS011;24237;50.106;20.014;2023-09-30T02:31:08;27.92;;;12.45;;
38455;SDS011;24237;50.106;20.014;2023-09-30T02:33:34;25.65;;;12.95;;
38455;SDS011;24237;50.106;20.014;2023-09-30T02:36:00;21.65;;;13.05;;
38455;SDS011;24237;50.106;20.014;2023-09-30T02:38:26;18.45;;;11.23;;
38455;SDS011;24237;50.106;20.014;2023-09-30T02:40:53;29.27;;;11.70;;
38455;SDS011;24237;50.106;20.014;2023-09-30T02:43:19;18.88;;;12.15;;
38455;SDS011;24237;50.106;20.014;2023-09-30T02:45:45;19.95;;;11.40;;
38455;SDS011;24237;50.106;20.014;2023-09-30T02:48:11;15.85;;;10.60;;
38455;SDS011;24237;50.106;20.014;2023-09-30T02:50:37;19.67;;;10.88;;
38455;SDS011;24237;50.106;20.014;2023-09-30T02:53:04;24.67;;;11.32;;
38455;SDS011;24237;50.106;20.014;2023-09-30T02:55:30;17.20;;;10.25;;
38455;SDS011;24237;50.106;20.014;2023-09-30T02:57:56;18.10;;;9.88;;
38455;SDS011;24237;50.106;20.014;2023-09-30T03:00:22;15.00;;;9.27;;
38455;SDS011;24237;50.106;20.014;2023-09-30T03:02:55;19.35;;;8.40;;
38455;SDS011;24237;50.106;20.014;2023-09-30T03:05:21;20.27;;;9.18;;
38455;SDS011;24237;50.106;20.014;2023-09-30T03:07:48;16.90;;;9.10;;
38455;SDS011;24237;50.106;20.014;2023-09-30T03:10:15;21.90;;;7.90;;
38455;SDS011;24237;50.106;20.014;2023-09-30T03:12:45;25.55;;;8.25;;
38455;SDS011;24237;50.106;20.014;2023-09-30T03:15:20;16.45;;;9.73;;
38455;SDS011;24237;50.106;20.014;2023-09-30T03:17:45;20.58;;;9.00;;
38455;SDS011;24237;50.106;20.014;2023-09-30T03:20:11;22.75;;;9.38;;
38455;SDS011;24237;50.106;20.014;2023-09-30T03:22:39;19.33;;;9.45;;
38455;SDS011;24237;50.106;20.014;2023-09-30T03:25:06;16.38;;;8.40;;
38455;SDS011;24237;50.106;20.014;2023-09-30T03:27:33;20.63;;;9.45;;
38455;SDS011;24237;50.106;20.014;2023-09-30T03:29:59;24.10;;;9.07;;
38455;SDS011;24237;50.106;20.014;2023-09-30T03:32:26;17.25;;;9.30;;
38455;SDS011;24237;50.106;20.014;2023-09-30T03:34:52;20.40;;;9.10;;
38455;SDS011;24237;50.106;20.014;2023-09-30T03:37:17;16.35;;;9.20;;
38455;SDS011;24237;50.106;20.014;2023-09-30T03:39:43;20.33;;;9.52;;
38455;SDS011;24237;50.106;20.014;2023-09-30T03:42:09;18.38;;;10.00;;
38455;SDS011;24237;50.106;20.014;2023-09-30T03:44:36;16.63;;;9.55;;
38455;SDS011;24237;50.106;20.014;2023-09-30T03:47:03;21.10;;;10.10;;
38455;SDS011;24237;50.106;20.014;2023-09-30T03:49:29;25.83;;;10.95;;
38455;SDS011;24237;50.106;20.014;2023-09-30T03:51:55;18.00;;;9.82;;
38455;SDS011;24237;50.106;20.014;2023-09-30T03:54:22;22.00;;;11.07;;
38455;SDS011;24237;50.106;20.014;2023-09-30T03:56:48;24.58;;;9.23;;
38455;SDS011;24237;50.106;20.014;2023-09-30T03:59:14;19.50;;;10.90;;
38455;SDS011;24237;50.106;20.014;2023-09-30T04:01:40;15.85;;;9.82;;
38455;SDS011;24237;50.106;20.014;2023-09-30T04:04:07;19.00;;;10.05;;
38455;SDS011;24237;50.106;20.014;2023-09-30T04:06:34;24.35;;;10.75;;
38455;SDS011;24237;50.106;20.014;2023-09-30T04:09:03;18.30;;;10.63;;
38455;SDS011;24237;50.106;20.014;2023-09-30T04:11:34;18.33;;;9.63;;
38455;SDS011;24237;50.106;20.014;2023-09-30T04:14:01;16.17;;;10.00;;
38455;SDS011;24237;50.106;20.014;2023-09-30T04:16:26;20.13;;;9.68;;
38455;SDS011;24237;50.106;20.014;2023-09-30T04:21:20;15.75;;;9.85;;
38455;SDS011;24237;50.106;20.014;2023-09-30T04:23:46;21.08;;;9.90;;
38455;SDS011;24237;50.106;20.014;2023-09-30T04:26:12;19.77;;;9.50;;
38455;SDS011;24237;50.106;20.014;2023-09-30T04:28:37;23.00;;;10.57;;
38455;SDS011;24237;50.106;20.014;2023-09-30T04:31:03;22.13;;;10.75;;
38455;SDS011;24237;50.106;20.014;2023-09-30T04:33:29;20.40;;;10.18;;
38455;SDS011;24237;50.106;20.014;2023-09-30T04:35:55;22.77;;;10.65;;
38455;SDS011;24237;50.106;20.014;2023-09-30T04:38:21;17.67;;;10.35;;
38455;SDS011;24237;50.106;20.014;2023-09-30T04:40:46;23.67;;;9.90;;
38455;SDS011;24237;50.106;20.014;2023-09-30T04:43:16;19.77;;;9.77;;
38455;SDS011;24237;50.106;20.014;2023-09-30T04:45:42;19.33;;;10.68;;
38455;SDS011;24237;50.106;20.014;2023-09-30T04:48:08;17.00;;;10.43;;
38455;SDS011;24237;50.106;20.014;2023-09-30T04:50:34;19.70;;;10.98;;
38455;SDS011;24237;50.106;20.014;2023-09-30T04:52:59;18.83;;;9.65;;
38455;SDS011;24237;50.106;20.014;2023-09-30T04:55:25;18.35;;;10.45;;
38455;SDS011;24237;50.106;20.014;2023-09-30T04:57:51;18.25;;;10.75;;
38455;SDS011;24237;50.106;20.014;2023-09-30T05:00:20;16.00;;;10.13;;
38455;SDS011;24237;50.106;20.014;2023-09-30T05:02:50;21.58;;;9.10;;
38455;SDS011;24237;50.106;20.014;2023-09-30T05:05:17;16.73;;;9.95;;
38455;SDS011;24237;50.106;20.014;2023-09-30T05:07:43;18.27;;;10.07;;
38455;SDS011;24237;50.106;20.014;2023-09-30T05:12:38;19.73;;;10.00;;
38455;SDS011;24237;50.106;20.014;2023-09-30T05:15:05;23.00;;;9.82;;
38455;SDS011;24237;50.106;20.014;2023-09-30T05:17:32;23.75;;;10.60;;
38455;SDS011;24237;50.106;20.014;2023-09-30T05:19:58;17.30;;;10.05;;
38455;SDS011;24237;50.106;20.014;2023-09-30T05:22:24;23.08;;;11.13;;
38455;SDS011;24237;50.106;20.014;2023-09-30T05:24:53;16.88;;;10.70;;
38455;SDS011;24237;50.106;20.014;2023-09-30T05:27:19;24.33;;;10.65;;
38455;SDS011;24237;50.106;20.014;2023-09-30T05:29:45;21.70;;;10.57;;
38455;SDS011;24237;50.106;20.014;2023-09-30T05:32:10;22.00;;;10.02;;
38455;SDS011;24237;50.106;20.014;2023-09-30T05:34:37;21.80;;;10.73;;
38455;SDS011;24237;50.106;20.014;2023-09-30T05:37:04;19.03;;;11.53;;
38455;SDS011;24237;50.106;20.014;2023-09-30T05:39:29;15.82;;;10.48;;
38455;SDS011;24237;50.106;20.014;2023-09-30T05:41:56;20.33;;;10.93;;
38455;SDS011;24237;50.106;20.014;2023-09-30T05:44:22;20.60;;;11.10;;
38455;SDS011;24237;50.106;20.014;2023-09-30T05:46:49;22.50;;;12.05;;
38455;SDS011;24237;50.106;20.014;2023-09-30T05:49:14;18.95;;;11.20;;
38455;SDS011;24237;50.106;20.014;2023-09-30T05:51:41;19.05;;;11.20;;
38455;SDS011;24237;50.106;20.014;2023-09-30T05:54:07;18.45;;;11.30;;
38455;SDS011;24237;50.106;20.014;2023-09-30T05:56:35;24.63;;;11.02;;
38455;SDS011;24237;50.106;20.014;2023-09-30T05:59:02;19.13;;;11.25;;
38455;SDS011;24237;50.106;20.014;2023-09-30T06:01:28;19.52;;;10.48;;
38455;SDS011;24237;50.106;20.014;2023-09-30T06:03:53;19.60;;;10.75;;
38455;SDS011;24237;50.106;20.014;2023-09-30T06:06:19;17.17;;;10.88;;
38455;SDS011;24237;50.106;20.014;2023-09-30T06:08:45;21.60;;;11.15;;
38455;SDS011;24237;50.106;20.014;2023-09-30T06:11:17;19.13;;;10.70;;
38455;SDS011;24237;50.106;20.014;2023-09-30T06:13:44;26.38;;;11.32;;
38455;SDS011;24237;50.106;20.014;2023-09-30T06:16:12;18.95;;;13.05;;
38455;SDS011;24237;50.106;20.014;2023-09-30T06:18:38;16.52;;;11.10;;
38455;SDS011;24237;50.106;20.014;2023-09-30T06:21:04;21.45;;;10.57;;
38455;SDS011;24237;50.106;20.014;2023-09-30T06:23:29;17.70;;;10.98;;
38455;SDS011;24237;50.106;20.014;2023-09-30T06:25:56;21.60;;;10.90;;
38455;SDS011;24237;50.106;20.014;2023-09-30T06:28:22;23.13;;;11.27;;
38455;SDS011;24237;50.106;20.014;2023-09-30T06:30:51;21.08;;;11.40;;
38455;SDS011;24237;50.106;20.014;2023-09-30T06:33:17;15.05;;;9.98;;
38455;SDS011;24237;50.106;20.014;2023-09-30T06:35:43;22.92;;;10.27;;
38455;SDS011;24237;50.106;20.014;2023-09-30T06:38:16;21.75;;;11.40;;
38455;SDS011;24237;50.106;20.014;2023-09-30T06:40:45;19.65;;;11.13;;
38455;SDS011;24237;50.106;20.014;2023-09-30T06:43:14;22.65;;;11.23;;
38455;SDS011;24237;50.106;20.014;2023-09-30T06:45:42;21.67;;;10.70;;
38455;SDS011;24237;50.106;20.014;2023-09-30T06:48:09;20.05;;;10.68;;
38455;SDS011;24237;50.106;20.014;2023-09-30T06:50:38;21.17;;;10.02;;
38455;SDS011;24237;50.106;20.014;2023-09-30T06:53:05;25.08;;;11.63;;
38455;SDS011;24237;50.106;20.014;2023-09-30T06:55:31;22.63;;;11.23;;
38455;SDS011;24237;50.106;20.014;2023-09-30T06:57:57;18.70;;;10.13;;
38455;SDS011;24237;50.106;20.014;2023-09-30T07:00:22;21.08;;;10.73;;
38455;SDS011;24237;50.106;20.014;2023-09-30T07:02:48;19.25;;;11.25;;
38455;SDS011;24237;50.106;20.014;2023-09-30T07:05:14;23.30;;;10.23;;
38455;SDS011;24237;50.106;20.014;2023-09-30T07:07:41;19.55;;;11.10;;
38455;SDS011;24237;50.106;20.014;2023-09-30T07:10:10;16.90;;;10.68;;
38455;SDS011;24237;50.106;20.014;2023-09-30T07:12:36;22.75;;;11.43;;
38455;SDS011;24237;50.106;20.014;2023-09-30T07:15:05;19.33;;;11.27;;
38455;SDS011;24237;50.106;20.014;2023-09-30T07:17:31;23.98;;;11.00;;
38455;SDS011;24237;50.106;20.014;2023-09-30T07:19:58;20.52;;;11.85;;
38455;SDS011;24237;50.106;20.014;2023-09-30T07:22:24;18.73;;;11.65;;
38455;SDS011;24237;50.106;20.014;2023-09-30T07:24:50;23.77;;;11.65;;
38455;SDS011;24237;50.106;20.014;2023-09-30T07:27:16;22.30;;;12.15;;
38455;SDS011;24237;50.106;20.014;2023-09-30T07:29:41;17.88;;;12.07;;
38455;SDS011;24237;50.106;20.014;2023-09-30T07:32:08;21.93;;;12.97;;
38455;SDS011;24237;50.106;20.014;2023-09-30T07:34:34;20.70;;;12.20;;
38455;SDS011;24237;50.106;20.014;2023-09-30T07:37:00;20.45;;;12.50;;
38455;SDS011;24237;50.106;20.014;2023-09-30T07:39:25;22.83;;;12.10;;
38455;SDS011;24237;50.106;20.014;2023-09-30T07:41:51;21.05;;;13.45;;
38455;SDS011;24237;50.106;20.014;2023-09-30T07:44:17;24.20;;;12.07;;
38455;SDS011;24237;50.106;20.014;2023-09-30T07:46:42;19.27;;;12.65;;
38455;SDS011;24237;50.106;20.014;2023-09-30T07:49:08;23.05;;;12.70;;
38455;SDS011;24237;50.106;20.014;2023-09-30T07:51:35;20.00;;;12.68;;
38455;SDS011;24237;50.106;20.014;2023-09-30T07:54:01;18.98;;;12.68;;
38455;SDS011;24237;50.106;20.014;2023-09-30T07:56:28;21.48;;;13.00;;
38455;SDS011;24237;50.106;20.014;2023-09-30T07:58:54;23.70;;;12.30;;
38455;SDS011;24237;50.106;20.014;2023-09-30T08:01:19;29.63;;;13.55;;
38455;SDS011;24237;50.106;20.014;2023-09-30T08:03:45;20.60;;;13.98;;
38455;SDS011;24237;50.106;20.014;2023-09-30T08:06:11;21.95;;;12.95;;
38455;SDS011;24237;50.106;20.014;2023-09-30T08:08:37;24.30;;;12.18;;
38455;SDS011;24237;50.106;20.014;2023-09-30T08:11:03;17.55;;;12.57;;
38455;SDS011;24237;50.106;20.014;2023-09-30T08:13:29;20.60;;;12.70;;
38455;SDS011;24237;50.106;20.014;2023-09-30T08:15:55;20.80;;;12.95;;
38455;SDS011;24237;50.106;20.014;2023-09-30T08:18:21;21.27;;;13.68;;
38455;SDS011;24237;50.106;20.014;2023-09-30T08:20:47;19.27;;;13.70;;
38455;SDS011;24237;50.106;20.014;2023-09-30T08:23:14;21.98;;;13.75;;
38455;SDS011;24237;50.106;20.014;2023-09-30T08:25:39;21.27;;;13.02;;
38455;SDS011;24237;50.106;20.014;2023-09-30T08:28:05;26.38;;;13.18;;
38455;SDS011;24237;50.106;20.014;2023-09-30T08:30:32;27.08;;;14.75;;
38455;SDS011;24237;50.106;20.014;2023-09-30T08:32:58;21.98;;;15.15;;
38455;SDS011;24237;50.106;20.014;2023-09-30T08:35:24;26.27;;;14.30;;
38455;SDS011;24237;50.106;20.014;2023-09-30T08:37:50;27.85;;;14.38;;
38455;SDS011;24237;50.106;20.014;2023-09-30T08:40:19;26.88;;;15.00;;
38455;SDS011;24237;50.106;20.014;2023-09-30T08:42:46;27.00;;;16.83;;
38455;SDS011;24237;50.106;20.014;2023-09-30T08:45:16;25.33;;;14.85;;
38455;SDS011;24237;50.106;20.014;2023-09-30T08:47:43;22.42;;;14.38;;
38455;SDS011;24237;50.106;20.014;2023-09-30T08:50:11;22.25;;;15.25;;
38455;SDS011;24237;50.106;20.014;2023-09-30T08:52:38;22.52;;;14.32;;
38455;SDS011;24237;50.106;20.014;2023-09-30T08:55:06;24.98;;;14.52;;
38455;SDS011;24237;50.106;20.014;2023-09-30T08:57:33;22.08;;;14.63;;
38455;SDS011;24237;50.106;20.014;2023-09-30T09:00:07;30.17;;;15.10;;
38455;SDS011;24237;50.106;20.014;2023-09-30T09:02:36;22.92;;;14.93;;
38455;SDS011;24237;50.106;20.014;2023-09-30T09:05:02;28.20;;;14.38;;
38455;SDS011;24237;50.106;20.014;2023-09-30T09:07:28;21.70;;;15.35;;
38455;SDS011;24237;50.106;20.014;2023-09-30T09:10:08;23.10;;;14.23;;
38455;SDS011;24237;50.106;20.014;2023-09-30T09:12:36;24.05;;;15.30;;
38455;SDS011;24237;50.106;20.014;2023-09-30T09:15:04;23.83;;;15.75;;
38455;SDS011;24237;50.106;20.014;2023-09-30T09:17:43;24.60;;;15.27;;
38455;SDS011;24237;50.106;20.014;2023-09-30T09:20:31;22.52;;;14.35;;
38455;SDS011;24237;50.106;20.014;2023-09-30T09:22:56;33.47;;;15.82;;
38455;SDS011;24237;50.106;20.014;2023-09-30T09:25:25;21.42;;;15.75;;
38455;SDS011;24237;50.106;20.014;2023-09-30T09:27:51;36.28;;;19.50;;
38455;SDS011;24237;50.106;20.014;2023-09-30T09:30:18;29.43;;;15.67;;
38455;SDS011;24237;50.106;20.014;2023-09-30T09:35:30;26.58;;;16.30;;
38455;SDS011;24237;50.106;20.014;2023-09-30T09:38:00;25.55;;;17.52;;
38455;SDS011;24237;50.106;20.014;2023-09-30T09:40:31;28.08;;;16.70;;
38455;SDS011;24237;50.106;20.014;2023-09-30T09:45:27;29.20;;;17.38;;
38455;SDS011;24237;50.106;20.014;2023-09-30T09:47:53;29.05;;;17.98;;
38455;SDS011;24237;50.106;20.014;2023-09-30T09:50:22;26.53;;;16.37;;
38455;SDS011;24237;50.106;20.014;2023-09-30T09:52:48;27.77;;;17.30;;
38455;SDS011;24237;50.106;20.014;2023-09-30T09:55:23;25.50;;;17.85;;
38455;SDS011;24237;50.106;20.014;2023-09-30T09:57:50;30.65;;;17.90;;
38455;SDS011;24237;50.106;20.014;2023-09-30T10:00:17;21.27;;;15.55;;
38455;SDS011;24237;50.106;20.014;2023-09-30T10:02:45;27.65;;;19.08;;
38455;SDS011;24237;50.106;20.014;2023-09-30T10:05:12;30.75;;;19.35;;
38455;SDS011;24237;50.106;20.014;2023-09-30T10:10:35;29.13;;;19.48;;
38455;SDS011;24237;50.106;20.014;2023-09-30T10:13:02;32.63;;;20.52;;
38455;SDS011;24237;50.106;20.014;2023-09-30T10:17:57;32.13;;;19.95;;
38455;SDS011;24237;50.106;20.014;2023-09-30T10:20:27;27.92;;;20.17;;
38455;SDS011;24237;50.106;20.014;2023-09-30T10:25:47;29.98;;;20.27;;
38455;SDS011;24237;50.106;20.014;2023-09-30T10:31:08;31.95;;;20.25;;
38455;SDS011;24237;50.106;20.014;2023-09-30T10:36:28;29.77;;;20.05;;
38455;SDS011;24237;50.106;20.014;2023-09-30T10:38:55;31.45;;;20.25;;
38455;SDS011;24237;50.106;20.014;2023-09-30T10:46:51;34.58;;;22.92;;
38455;SDS011;24237;50.106;20.014;2023-09-30T10:51:52;36.38;;;23.33;;
38455;SDS011;24237;50.106;20.014;2023-09-30T10:54:26;39.65;;;22.20;;
38455;SDS011;24237;50.106;20.014;2023-09-30T10:56:57;32.45;;;22.92;;
38455;SDS011;24237;50.106;20.014;2023-09-30T10:59:33;48.20;;;24.92;;
38455;SDS011;24237;50.106;20.014;2023-09-30T11:02:00;39.72;;;24.08;;
38455;SDS011;24237;50.106;20.014;2023-09-30T11:04:25;34.03;;;22.45;;
38455;SDS011;24237;50.106;20.014;2023-09-30T11:06:54;38.53;;;23.40;;
38455;SDS011;24237;50.106;20.014;2023-09-30T11:09:20;39.53;;;25.25;;
38455;SDS011;24237;50.106;20.014;2023-09-30T11:11:51;37.55;;;25.02;;
38455;SDS011;24237;50.106;20.014;2023-09-30T11:14:22;33.92;;;24.30;;
38455;SDS011;24237;50.106;20.014;2023-09-30T11:16:56;32.75;;;24.10;;
38455;SDS011;24237;50.106;20.014;2023-09-30T11:19:23;32.60;;;20.75;;
38455;SDS011;24237;50.106;20.014;2023-09-30T11:21:49;32.15;;;21.63;;
38455;SDS011;24237;50.106;20.014;2023-09-30T11:24:20;26.05;;;19.75;;
38455;SDS011;24237;50.106;20.014;2023-09-30T11:26:46;26.15;;;20.45;;
38455;SDS011;24237;50.106;20.014;2023-09-30T11:29:15;25.83;;;19.65;;
38455;SDS011;24237;50.106;20.014;2023-09-30T11:31:42;26.70;;;19.50;;
38455;SDS011;24237;50.106;20.014;2023-09-30T11:34:09;28.77;;;18.90;;
38455;SDS011;24237;50.106;20.014;2023-09-30T11:36:37;26.90;;;20.50;;
38455;SDS011;24237;50.106;20.014;2023-09-30T11:39:04;23.90;;;18.73;;
38455;SDS011;24237;50.106;20.014;2023-09-30T11:41:34;23.85;;;17.70;;
38455;SDS011;24237;50.106;20.014;2023-09-30T11:44:05;26.70;;;18.20;;
38455;SDS011;24237;50.106;20.014;2023-09-30T11:46:49;22.20;;;16.00;;
38455;SDS011;24237;50.106;20.014;2023-09-30T11:49:23;18.17;;;12.77;;
38455;SDS011;24237;50.106;20.014;2023-09-30T11:51:50;19.17;;;13.80;;
38455;SDS011;24237;50.106;20.014;2023-09-30T11:54:16;15.80;;;12.23;;
38455;SDS011;24237;50.106;20.014;2023-09-30T11:56:42;18.40;;;12.45;;
38455;SDS011;24237;50.106;20.014;2023-09-30T11:59:07;16.77;;;13.88;;
38455;SDS011;24237;50.106;20.014;2023-09-30T12:01:35;15.98;;;12.40;;
38455;SDS011;24237;50.106;20.014;2023-09-30T12:04:04;14.85;;;11.73;;
38455;SDS011;24237;50.106;20.014;2023-09-30T12:06:31;18.45;;;12.02;;
38455;SDS011;24237;50.106;20.014;2023-09-30T12:08:59;15.52;;;11.93;;
38455;SDS011;24237;50.106;20.014;2023-09-30T12:11:25;15.07;;;10.90;;
38455;SDS011;24237;50.106;20.014;2023-09-30T12:13:50;14.00;;;11.23;;
38455;SDS011;24237;50.106;20.014;2023-09-30T12:16:16;14.27;;;10.55;;
38455;SDS011;24237;50.106;20.014;2023-09-30T12:18:42;11.63;;;9.57;;
38455;SDS011;24237;50.106;20.014;2023-09-30T12:21:11;14.00;;;9.82;;
38455;SDS011;24237;50.106;20.014;2023-09-30T12:23:38;12.38;;;9.60;;
38455;SDS011;24237;50.106;20.014;2023-09-30T12:26:04;11.57;;;9.18;;
38455;SDS011;24237;50.106;20.014;2023-09-30T12:28:34;11.68;;;9.05;;
38455;SDS011;24237;50.106;20.014;2023-09-30T12:31:00;13.30;;;8.55;;
38455;SDS011;24237;50.106;20.014;2023-09-30T12:33:29;10.40;;;8.55;;
38455;SDS011;24237;50.106;20.014;2023-09-30T12:35:56;14.80;;;8.52;;
38455;SDS011;24237;50.106;20.014;2023-09-30T12:38:25;11.50;;;8.82;;
38455;SDS011;24237;50.106;20.014;2023-09-30T12:40:52;11.00;;;9.25;;
38455;SDS011;24237;50.106;20.014;2023-09-30T12:43:18;11.27;;;7.70;;
38455;SDS011;24237;50.106;20.014;2023-09-30T12:45:45;9.38;;;8.05;;
38455;SDS011;24237;50.106;20.014;2023-09-30T12:48:11;12.70;;;9.70;;
38455;SDS011;24237;50.106;20.014;2023-09-30T12:50:37;11.88;;;8.85;;
38455;SDS011;24237;50.106;20.014;2023-09-30T12:53:02;12.48;;;8.65;;
38455;SDS011;24237;50.106;20.014;2023-09-30T12:55:28;11.60;;;9.25;;
38455;SDS011;24237;50.106;20.014;2023-09-30T12:57:53;11.65;;;8.40;;
38455;SDS011;24237;50.106;20.014;2023-09-30T13:00:19;9.98;;;8.77;;
38455;SDS011;24237;50.106;20.014;2023-09-30T13:02:47;10.57;;;8.07;;
38455;SDS011;24237;50.106;20.014;2023-09-30T13:05:13;10.18;;;8.48;;
38455;SDS011;24237;50.106;20.014;2023-09-30T13:07:39;12.32;;;9.40;;
38455;SDS011;24237;50.106;20.014;2023-09-30T13:10:05;13.23;;;9.55;;
38455;SDS011;24237;50.106;20.014;2023-09-30T13:14:58;11.35;;;9.02;;
38455;SDS011;24237;50.106;20.014;2023-09-30T13:17:24;10.35;;;9.07;;
38455;SDS011;24237;50.106;20.014;2023-09-30T13:19:50;14.02;;;10.38;;
38455;SDS011;24237;50.106;20.014;2023-09-30T13:22:16;11.20;;;9.43;;
38455;SDS011;24237;50.106;20.014;2023-09-30T13:24:42;12.82;;;10.32;;
38455;SDS011;24237;50.106;20.014;2023-09-30T13:27:08;12.82;;;10.52;;
38455;SDS011;24237;50.106;20.014;2023-09-30T13:29:34;13.07;;;10.95;;
38455;SDS011;24237;50.106;20.014;2023-09-30T13:32:00;15.57;;;12.07;;
38455;SDS011;24237;50.106;20.014;2023-09-30T13:34:26;14.52;;;11.95;;
38455;SDS011;24237;50.106;20.014;2023-09-30T13:36:52;16.42;;;12.40;;
38455;SDS011;24237;50.106;20.014;2023-09-30T13:39:20;13.57;;;11.32;;
38455;SDS011;24237;50.106;20.014;2023-09-30T13:41:46;18.48;;;13.90;;
38455;SDS011;24237;50.106;20.014;2023-09-30T13:44:14;19.05;;;13.55;;
38455;SDS011;24237;50.106;20.014;2023-09-30T13:46:41;20.10;;;13.85;;
38455;SDS011;24237;50.106;20.014;2023-09-30T13:49:07;17.58;;;13.45;;
38455;SDS011;24237;50.106;20.014;2023-09-30T13:51:33;14.70;;;12.10;;
38455;SDS011;24237;50.106;20.014;2023-09-30T13:53:59;13.18;;;10.75;;
38455;SDS011;24237;50.106;20.014;2023-09-30T13:56:25;20.17;;;13.32;;
38455;SDS011;24237;50.106;20.014;2023-09-30T13:58:50;13.80;;;11.15;;
38455;SDS011;24237;50.106;20.014;2023-09-30T14:01:17;19.10;;;12.55;;
38455;SDS011;24237;50.106;20.014;2023-09-30T14:03:44;16.67;;;11.50;;
38455;SDS011;24237;50.106;20.014;2023-09-30T14:06:12;12.95;;;9.25;;
38455;SDS011;24237;50.106;20.014;2023-09-30T14:08:38;15.15;;;8.82;;
38455;SDS011;24237;50.106;20.014;2023-09-30T14:11:07;14.85;;;7.72;;
38455;SDS011;24237;50.106;20.014;2023-09-30T14:13:33;12.20;;;8.32;;
38455;SDS011;24237;50.106;20.014;2023-09-30T14:15:59;13.02;;;8.85;;
38455;SDS011;24237;50.106;20.014;2023-09-30T14:18:25;13.57;;;8.57;;
38455;SDS011;24237;50.106;20.014;2023-09-30T14:20:50;15.75;;;9.77;;
38455;SDS011;24237;50.106;20.014;2023-09-30T14:23:16;17.15;;;10.15;;
38455;SDS011;24237;50.106;20.014;2023-09-30T14:25:41;20.02;;;9.90;;
38455;SDS011;24237;50.106;20.014;2023-09-30T14:28:07;16.27;;;10.20;;
38455;SDS011;24237;50.106;20.014;2023-09-30T14:30:33;17.15;;;9.70;;
38455;SDS011;24237;50.106;20.014;2023-09-30T14:32:58;14.52;;;9.15;;
38455;SDS011;24237;50.106;20.014;2023-09-30T14:35:24;25.48;;;10.43;;
38455;SDS011;24237;50.106;20.014;2023-09-30T14:37:50;13.88;;;9.60;;
38455;SDS011;24237;50.106;20.014;2023-09-30T14:40:19;14.40;;;9.07;;
38455;SDS011;24237;50.106;20.014;2023-09-30T14:42:45;12.63;;;8.35;;
38455;SDS011;24237;50.106;20.014;2023-09-30T14:45:10;20.92;;;8.35;;